sensor_id;sensor_type;location;lat;lon;timestamp;temperature;humidity
12911;DHT22;6523;49.758;6.120;2023-05-16T00:01:33;10.70;99.90
12911;DHT22;6523;49.758;6.120;2023-05-16T00:03:59;10.60;99.90
12911;DHT22;6523;49.758;6.120;2023-05-16T00:06:25;10.70;99.90
12911;DHT22;6523;49.758;6.120;2023-05-16T00:08:51;10.70;99.90
12911;DHT22;6523;49.758;6.120;2023-05-16T00:11:16;10.70;99.90
12911;DHT22;6523;49.758;6.120;2023-05-16T00:13:42;10.70;99.90
12911;DHT22;6523;49.758;6.120;2023-05-16T00:16:08;10.70;99.90
12911;DHT22;6523;49.758;6.120;2023-05-16T00:18:34;10.60;99.90
12911;DHT22;6523;49.758;6.120;2023-05-16T00:21:03;10.50;99.90
12911;DHT22;6523;49.758;6.120;2023-05-16T00:23:30;10.50;99.90
12911;DHT22;6523;49.758;6.120;2023-05-16T00:25:55;10.50;99.90
12911;DHT22;6523;49.758;6.120;2023-05-16T00:28:21;10.50;99.90
12911;DHT22;6523;49.758;6.120;2023-05-16T00:30:46;10.40;99.90
12911;DHT22;6523;49.758;6.120;2023-05-16T00:33:12;10.40;99.90
12911;DHT22;6523;49.758;6.120;2023-05-16T00:35:38;10.40;99.90
12911;DHT22;6523;49.758;6.120;2023-05-16T00:38:03;10.30;99.90
12911;DHT22;6523;49.758;6.120;2023-05-16T00:40:29;10.40;99.90
12911;DHT22;6523;49.758;6.120;2023-05-16T00:42:54;10.40;99.90
12911;DHT22;6523;49.758;6.120;2023-05-16T00:45:20;10.40;99.90
12911;DHT22;6523;49.758;6.120;2023-05-16T00:47:46;10.30;99.90
12911;DHT22;6523;49.758;6.120;2023-05-16T00:50:12;10.30;99.90
12911;DHT22;6523;49.758;6.120;2023-05-16T00:52:37;10.30;99.90
12911;DHT22;6523;49.758;6.120;2023-05-16T00:55:03;10.20;99.90
12911;DHT22;6523;49.758;6.120;2023-05-16T00:57:30;10.20;99.90
12911;DHT22;6523;49.758;6.120;2023-05-16T00:59:55;10.10;99.90
12911;DHT22;6523;49.758;6.120;2023-05-16T01:02:21;10.10;99.90
12911;DHT22;6523;49.758;6.120;2023-05-16T01:04:47;10.10;99.90
12911;DHT22;6523;49.758;6.120;2023-05-16T01:07:14;10.10;99.90
12911;DHT22;6523;49.758;6.120;2023-05-16T01:09:39;10.20;99.90
12911;DHT22;6523;49.758;6.120;2023-05-16T01:15:03;10.00;99.90
12911;DHT22;6523;49.758;6.120;2023-05-16T01:20:58;10.00;99.90
12911;DHT22;6523;49.758;6.120;2023-05-16T01:24:08;9.90;99.90
12911;DHT22;6523;49.758;6.120;2023-05-16T01:26:38;9.90;99.90
12911;DHT22;6523;49.758;6.120;2023-05-16T01:29:05;9.90;99.90
12911;DHT22;6523;49.758;6.120;2023-05-16T01:31:31;9.90;99.90
12911;DHT22;6523;49.758;6.120;2023-05-16T01:33:57;9.80;99.90
12911;DHT22;6523;49.758;6.120;2023-05-16T01:39:14;9.80;99.90
12911;DHT22;6523;49.758;6.120;2023-05-16T01:44:34;9.70;99.90
12911;DHT22;6523;49.758;6.120;2023-05-16T01:47:02;9.60;99.90
12911;DHT22;6523;49.758;6.120;2023-05-16T01:49:39;9.60;99.90
12911;DHT22;6523;49.758;6.120;2023-05-16T01:52:10;9.50;99.90
12911;DHT22;6523;49.758;6.120;2023-05-16T01:54:39;9.50;99.90
12911;DHT22;6523;49.758;6.120;2023-05-16T01:57:07;9.50;99.90
12911;DHT22;6523;49.758;6.120;2023-05-16T01:59:34;9.50;99.90
12911;DHT22;6523;49.758;6.120;2023-05-16T02:02:01;9.50;99.90
12911;DHT22;6523;49.758;6.120;2023-05-16T02:04:26;9.50;99.90
12911;DHT22;6523;49.758;6.120;2023-05-16T02:06:52;9.50;99.90
12911;DHT22;6523;49.758;6.120;2023-05-16T02:09:17;9.60;99.90
12911;DHT22;6523;49.758;6.120;2023-05-16T02:11:43;9.50;99.90
12911;DHT22;6523;49.758;6.120;2023-05-16T02:14:09;9.60;99.90
12911;DHT22;6523;49.758;6.120;2023-05-16T02:16:36;9.70;99.90
12911;DHT22;6523;49.758;6.120;2023-05-16T02:19:01;9.70;99.90
12911;DHT22;6523;49.758;6.120;2023-05-16T02:21:27;9.60;99.90
12911;DHT22;6523;49.758;6.120;2023-05-16T02:23:52;9.70;99.90
12911;DHT22;6523;49.758;6.120;2023-05-16T02:26:18;9.60;99.90
12911;DHT22;6523;49.758;6.120;2023-05-16T02:28:43;9.60;99.90
12911;DHT22;6523;49.758;6.120;2023-05-16T02:31:09;9.70;99.90
12911;DHT22;6523;49.758;6.120;2023-05-16T02:33:35;9.70;99.90
12911;DHT22;6523;49.758;6.120;2023-05-16T02:36:00;9.70;99.90
12911;DHT22;6523;49.758;6.120;2023-05-16T02:38:26;9.60;99.90
12911;DHT22;6523;49.758;6.120;2023-05-16T02:40:51;9.60;99.90
12911;DHT22;6523;49.758;6.120;2023-05-16T02:43:17;9.50;99.90
12911;DHT22;6523;49.758;6.120;2023-05-16T02:45:42;9.40;99.90
12911;DHT22;6523;49.758;6.120;2023-05-16T02:48:08;9.50;99.90
12911;DHT22;6523;49.758;6.120;2023-05-16T02:50:33;9.50;99.90
12911;DHT22;6523;49.758;6.120;2023-05-16T02:53:00;9.50;99.90
12911;DHT22;6523;49.758;6.120;2023-05-16T02:55:27;9.50;99.90
12911;DHT22;6523;49.758;6.120;2023-05-16T02:57:53;9.40;99.90
12911;DHT22;6523;49.758;6.120;2023-05-16T03:00:18;9.40;99.90
12911;DHT22;6523;49.758;6.120;2023-05-16T03:02:44;9.40;99.90
12911;DHT22;6523;49.758;6.120;2023-05-16T03:05:10;9.40;99.90
12911;DHT22;6523;49.758;6.120;2023-05-16T03:07:36;9.30;99.90
12911;DHT22;6523;49.758;6.120;2023-05-16T03:10:02;9.40;99.90
12911;DHT22;6523;49.758;6.120;2023-05-16T03:12:28;9.20;99.90
12911;DHT22;6523;49.758;6.120;2023-05-16T03:14:54;9.20;99.90
12911;DHT22;6523;49.758;6.120;2023-05-16T03:17:19;9.20;99.90
12911;DHT22;6523;49.758;6.120;2023-05-16T03:19:45;9.20;99.90
12911;DHT22;6523;49.758;6.120;2023-05-16T03:22:11;9.20;99.90
12911;DHT22;6523;49.758;6.120;2023-05-16T03:24:36;9.20;99.90
12911;DHT22;6523;49.758;6.120;2023-05-16T03:27:02;9.00;99.90
12911;DHT22;6523;49.758;6.120;2023-05-16T03:29:29;9.00;99.90
12911;DHT22;6523;49.758;6.120;2023-05-16T03:31:54;9.00;99.90
12911;DHT22;6523;49.758;6.120;2023-05-16T03:34:20;8.90;99.90
12911;DHT22;6523;49.758;6.120;2023-05-16T03:36:48;8.90;99.90
12911;DHT22;6523;49.758;6.120;2023-05-16T03:39:13;8.80;99.90
12911;DHT22;6523;49.758;6.120;2023-05-16T03:41:39;8.60;99.90
12911;DHT22;6523;49.758;6.120;2023-05-16T03:44:05;8.60;99.90
12911;DHT22;6523;49.758;6.120;2023-05-16T03:46:30;8.50;99.90
12911;DHT22;6523;49.758;6.120;2023-05-16T03:48:56;8.50;99.90
12911;DHT22;6523;49.758;6.120;2023-05-16T03:51:21;8.40;99.90
12911;DHT22;6523;49.758;6.120;2023-05-16T03:53:47;8.40;99.90
12911;DHT22;6523;49.758;6.120;2023-05-16T03:56:13;8.30;99.90
12911;DHT22;6523;49.758;6.120;2023-05-16T03:58:38;8.30;99.90
12911;DHT22;6523;49.758;6.120;2023-05-16T04:01:04;8.20;99.90
12911;DHT22;6523;49.758;6.120;2023-05-16T04:03:29;8.20;99.90
12911;DHT22;6523;49.758;6.120;2023-05-16T04:05:56;8.20;99.90
12911;DHT22;6523;49.758;6.120;2023-05-16T04:08:21;8.30;99.90
12911;DHT22;6523;49.758;6.120;2023-05-16T04:10:47;8.30;99.90
12911;DHT22;6523;49.758;6.120;2023-05-16T04:13:13;8.30;99.90
12911;DHT22;6523;49.758;6.120;2023-05-16T04:15:39;8.20;99.90
12911;DHT22;6523;49.758;6.120;2023-05-16T04:18:05;8.20;99.90
12911;DHT22;6523;49.758;6.120;2023-05-16T04:20:30;8.20;99.90
12911;DHT22;6523;49.758;6.120;2023-05-16T04:22:56;8.20;99.90
12911;DHT22;6523;49.758;6.120;2023-05-16T04:25:21;8.20;99.90
12911;DHT22;6523;49.758;6.120;2023-05-16T04:27:47;8.20;99.90
12911;DHT22;6523;49.758;6.120;2023-05-16T04:30:12;8.10;99.90
12911;DHT22;6523;49.758;6.120;2023-05-16T04:32:39;8.20;99.90
12911;DHT22;6523;49.758;6.120;2023-05-16T04:35:05;8.10;99.90
12911;DHT22;6523;49.758;6.120;2023-05-16T04:37:33;8.20;99.90
12911;DHT22;6523;49.758;6.120;2023-05-16T04:40:00;8.20;99.90
12911;DHT22;6523;49.758;6.120;2023-05-16T04:42:26;8.30;99.90
12911;DHT22;6523;49.758;6.120;2023-05-16T04:44:51;8.20;99.90
12911;DHT22;6523;49.758;6.120;2023-05-16T04:47:17;8.20;99.90
12911;DHT22;6523;49.758;6.120;2023-05-16T04:49:43;8.20;99.90
12911;DHT22;6523;49.758;6.120;2023-05-16T04:52:09;8.10;99.90
12911;DHT22;6523;49.758;6.120;2023-05-16T04:54:34;8.20;99.90
12911;DHT22;6523;49.758;6.120;2023-05-16T04:57:00;8.10;99.90
12911;DHT22;6523;49.758;6.120;2023-05-16T04:59:26;8.10;99.90
12911;DHT22;6523;49.758;6.120;2023-05-16T05:01:51;8.10;99.90
12911;DHT22;6523;49.758;6.120;2023-05-16T05:04:17;8.10;99.90
12911;DHT22;6523;49.758;6.120;2023-05-16T05:06:42;8.20;99.90
12911;DHT22;6523;49.758;6.120;2023-05-16T05:09:08;8.20;99.90
12911;DHT22;6523;49.758;6.120;2023-05-16T05:11:34;8.10;99.90
12911;DHT22;6523;49.758;6.120;2023-05-16T05:14:00;8.10;99.90
12911;DHT22;6523;49.758;6.120;2023-05-16T05:16:26;8.10;99.90
12911;DHT22;6523;49.758;6.120;2023-05-16T05:18:52;8.10;99.90
12911;DHT22;6523;49.758;6.120;2023-05-16T05:21:17;8.10;99.90
12911;DHT22;6523;49.758;6.120;2023-05-16T05:23:44;8.10;99.90
12911;DHT22;6523;49.758;6.120;2023-05-16T05:26:10;8.10;99.90
12911;DHT22;6523;49.758;6.120;2023-05-16T05:28:36;8.00;99.90
12911;DHT22;6523;49.758;6.120;2023-05-16T05:31:03;8.00;99.90
12911;DHT22;6523;49.758;6.120;2023-05-16T05:33:29;8.00;99.90
12911;DHT22;6523;49.758;6.120;2023-05-16T05:35:55;8.10;99.90
12911;DHT22;6523;49.758;6.120;2023-05-16T05:38:21;8.00;99.90
12911;DHT22;6523;49.758;6.120;2023-05-16T05:40:47;8.10;99.90
12911;DHT22;6523;49.758;6.120;2023-05-16T05:43:14;8.10;99.90
12911;DHT22;6523;49.758;6.120;2023-05-16T05:45:40;8.10;99.90
12911;DHT22;6523;49.758;6.120;2023-05-16T05:48:06;8.00;99.90
12911;DHT22;6523;49.758;6.120;2023-05-16T05:50:32;8.00;99.90
12911;DHT22;6523;49.758;6.120;2023-05-16T05:52:57;8.10;99.90
12911;DHT22;6523;49.758;6.120;2023-05-16T05:55:23;8.10;99.90
12911;DHT22;6523;49.758;6.120;2023-05-16T05:57:49;8.20;99.90
12911;DHT22;6523;49.758;6.120;2023-05-16T06:00:14;8.20;99.90
12911;DHT22;6523;49.758;6.120;2023-05-16T06:02:40;8.20;99.90
12911;DHT22;6523;49.758;6.120;2023-05-16T06:05:06;8.30;99.90
12911;DHT22;6523;49.758;6.120;2023-05-16T06:07:31;8.40;99.90
12911;DHT22;6523;49.758;6.120;2023-05-16T06:09:57;8.40;99.90
12911;DHT22;6523;49.758;6.120;2023-05-16T06:12:24;8.40;99.90
12911;DHT22;6523;49.758;6.120;2023-05-16T06:14:49;8.40;99.90
12911;DHT22;6523;49.758;6.120;2023-05-16T06:17:15;8.50;99.90
12911;DHT22;6523;49.758;6.120;2023-05-16T06:19:40;8.40;99.90
12911;DHT22;6523;49.758;6.120;2023-05-16T06:22:06;8.40;99.90
12911;DHT22;6523;49.758;6.120;2023-05-16T06:24:31;8.50;99.90
12911;DHT22;6523;49.758;6.120;2023-05-16T06:26:57;8.60;99.90
12911;DHT22;6523;49.758;6.120;2023-05-16T06:29:22;8.60;99.90
12911;DHT22;6523;49.758;6.120;2023-05-16T06:31:48;8.60;99.90
12911;DHT22;6523;49.758;6.120;2023-05-16T06:34:14;8.60;99.90
12911;DHT22;6523;49.758;6.120;2023-05-16T06:36:39;8.70;99.90
12911;DHT22;6523;49.758;6.120;2023-05-16T06:39:05;8.60;99.90
12911;DHT22;6523;49.758;6.120;2023-05-16T06:41:30;8.70;99.90
12911;DHT22;6523;49.758;6.120;2023-05-16T06:43:56;9.00;99.90
12911;DHT22;6523;49.758;6.120;2023-05-16T06:46:22;9.10;99.90
12911;DHT22;6523;49.758;6.120;2023-05-16T06:48:47;9.20;99.90
12911;DHT22;6523;49.758;6.120;2023-05-16T06:51:13;9.50;99.90
12911;DHT22;6523;49.758;6.120;2023-05-16T06:53:38;9.40;99.90
12911;DHT22;6523;49.758;6.120;2023-05-16T06:56:04;9.10;99.90
12911;DHT22;6523;49.758;6.120;2023-05-16T06:58:30;9.10;99.90
12911;DHT22;6523;49.758;6.120;2023-05-16T07:00:55;8.90;99.90
12911;DHT22;6523;49.758;6.120;2023-05-16T07:03:21;8.90;99.90
12911;DHT22;6523;49.758;6.120;2023-05-16T07:05:46;8.90;99.90
12911;DHT22;6523;49.758;6.120;2023-05-16T07:08:12;8.80;99.90
12911;DHT22;6523;49.758;6.120;2023-05-16T07:10:40;8.70;99.90
12911;DHT22;6523;49.758;6.120;2023-05-16T07:13:06;8.70;99.90
12911;DHT22;6523;49.758;6.120;2023-05-16T07:15:32;8.80;99.90
12911;DHT22;6523;49.758;6.120;2023-05-16T07:17:57;8.80;99.90
12911;DHT22;6523;49.758;6.120;2023-05-16T07:20:23;9.00;99.90
12911;DHT22;6523;49.758;6.120;2023-05-16T07:22:48;9.00;99.90
12911;DHT22;6523;49.758;6.120;2023-05-16T07:25:14;9.20;99.90
12911;DHT22;6523;49.758;6.120;2023-05-16T07:27:41;9.70;99.90
12911;DHT22;6523;49.758;6.120;2023-05-16T07:30:12;10.10;99.90
12911;DHT22;6523;49.758;6.120;2023-05-16T07:32:38;10.10;99.90
12911;DHT22;6523;49.758;6.120;2023-05-16T07:35:05;10.20;99.90
12911;DHT22;6523;49.758;6.120;2023-05-16T07:37:31;10.20;99.90
12911;DHT22;6523;49.758;6.120;2023-05-16T07:39:56;10.00;99.90
12911;DHT22;6523;49.758;6.120;2023-05-16T07:42:22;9.80;99.90
12911;DHT22;6523;49.758;6.120;2023-05-16T07:44:47;10.00;99.90
12911;DHT22;6523;49.758;6.120;2023-05-16T07:47:13;10.00;99.90
12911;DHT22;6523;49.758;6.120;2023-05-16T07:49:38;10.10;99.90
12911;DHT22;6523;49.758;6.120;2023-05-16T07:52:04;10.40;99.90
12911;DHT22;6523;49.758;6.120;2023-05-16T07:54:31;10.50;99.90
12911;DHT22;6523;49.758;6.120;2023-05-16T07:56:56;10.90;99.90
12911;DHT22;6523;49.758;6.120;2023-05-16T07:59:22;11.20;99.90
12911;DHT22;6523;49.758;6.120;2023-05-16T08:01:47;11.20;99.90
12911;DHT22;6523;49.758;6.120;2023-05-16T08:04:13;11.50;99.90
12911;DHT22;6523;49.758;6.120;2023-05-16T08:06:38;11.50;99.90
12911;DHT22;6523;49.758;6.120;2023-05-16T08:09:04;11.70;99.90
12911;DHT22;6523;49.758;6.120;2023-05-16T08:11:30;11.90;99.90
12911;DHT22;6523;49.758;6.120;2023-05-16T08:13:55;12.10;99.90
12911;DHT22;6523;49.758;6.120;2023-05-16T08:16:21;12.40;99.90
12911;DHT22;6523;49.758;6.120;2023-05-16T08:18:46;12.50;99.90
12911;DHT22;6523;49.758;6.120;2023-05-16T08:21:12;12.90;99.90
12911;DHT22;6523;49.758;6.120;2023-05-16T08:23:39;12.70;99.90
12911;DHT22;6523;49.758;6.120;2023-05-16T08:26:04;12.50;99.90
12911;DHT22;6523;49.758;6.120;2023-05-16T08:28:30;12.50;99.90
12911;DHT22;6523;49.758;6.120;2023-05-16T08:30:55;12.50;99.90
12911;DHT22;6523;49.758;6.120;2023-05-16T08:33:21;12.60;99.90
12911;DHT22;6523;49.758;6.120;2023-05-16T08:35:46;12.80;99.90
12911;DHT22;6523;49.758;6.120;2023-05-16T08:38:13;12.80;99.90
12911;DHT22;6523;49.758;6.120;2023-05-16T08:40:39;12.70;99.90
12911;DHT22;6523;49.758;6.120;2023-05-16T08:43:05;13.00;99.90
12911;DHT22;6523;49.758;6.120;2023-05-16T08:45:31;13.10;99.90
12911;DHT22;6523;49.758;6.120;2023-05-16T08:48:00;13.20;99.90
12911;DHT22;6523;49.758;6.120;2023-05-16T08:50:29;13.10;99.90
12911;DHT22;6523;49.758;6.120;2023-05-16T08:52:55;13.40;99.90
12911;DHT22;6523;49.758;6.120;2023-05-16T08:55:22;13.80;99.90
12911;DHT22;6523;49.758;6.120;2023-05-16T08:57:49;13.90;99.90
12911;DHT22;6523;49.758;6.120;2023-05-16T09:00:18;14.10;99.90
12911;DHT22;6523;49.758;6.120;2023-05-16T09:02:44;14.20;99.90
12911;DHT22;6523;49.758;6.120;2023-05-16T09:05:12;14.30;99.90
12911;DHT22;6523;49.758;6.120;2023-05-16T09:07:38;14.30;99.90
12911;DHT22;6523;49.758;6.120;2023-05-16T09:10:06;14.50;99.90
12911;DHT22;6523;49.758;6.120;2023-05-16T09:12:32;14.90;99.90
12911;DHT22;6523;49.758;6.120;2023-05-16T09:15:01;15.00;99.90
12911;DHT22;6523;49.758;6.120;2023-05-16T09:17:37;14.80;99.90
12911;DHT22;6523;49.758;6.120;2023-05-16T09:20:14;14.90;99.90
12911;DHT22;6523;49.758;6.120;2023-05-16T09:22:49;14.40;99.90
12911;DHT22;6523;49.758;6.120;2023-05-16T09:25:16;13.80;99.90
12911;DHT22;6523;49.758;6.120;2023-05-16T09:27:42;12.90;99.90
12911;DHT22;6523;49.758;6.120;2023-05-16T09:30:08;12.70;99.90
12911;DHT22;6523;49.758;6.120;2023-05-16T09:32:34;13.00;99.90
12911;DHT22;6523;49.758;6.120;2023-05-16T09:34:59;14.00;99.90
12911;DHT22;6523;49.758;6.120;2023-05-16T09:37:25;14.00;99.90
12911;DHT22;6523;49.758;6.120;2023-05-16T09:39:52;13.80;99.90
12911;DHT22;6523;49.758;6.120;2023-05-16T09:42:19;14.40;99.90
12911;DHT22;6523;49.758;6.120;2023-05-16T09:44:48;14.00;99.90
12911;DHT22;6523;49.758;6.120;2023-05-16T09:47:14;15.00;99.90
12911;DHT22;6523;49.758;6.120;2023-05-16T09:49:44;15.60;99.90
12911;DHT22;6523;49.758;6.120;2023-05-16T09:52:09;14.90;99.90
12911;DHT22;6523;49.758;6.120;2023-05-16T09:54:35;13.60;99.90
12911;DHT22;6523;49.758;6.120;2023-05-16T09:57:01;13.20;99.90
12911;DHT22;6523;49.758;6.120;2023-05-16T09:59:34;13.10;99.90
12911;DHT22;6523;49.758;6.120;2023-05-16T10:02:00;14.10;99.90
12911;DHT22;6523;49.758;6.120;2023-05-16T10:04:26;14.40;99.90
12911;DHT22;6523;49.758;6.120;2023-05-16T10:06:54;14.40;99.90
12911;DHT22;6523;49.758;6.120;2023-05-16T10:09:22;15.50;99.90
12911;DHT22;6523;49.758;6.120;2023-05-16T10:11:48;15.20;99.90
12911;DHT22;6523;49.758;6.120;2023-05-16T10:14:19;14.20;99.90
12911;DHT22;6523;49.758;6.120;2023-05-16T10:16:46;13.60;99.90
12911;DHT22;6523;49.758;6.120;2023-05-16T10:19:15;13.60;99.90
12911;DHT22;6523;49.758;6.120;2023-05-16T10:21:45;13.30;99.90
12911;DHT22;6523;49.758;6.120;2023-05-16T10:24:13;13.40;99.90
12911;DHT22;6523;49.758;6.120;2023-05-16T10:26:41;14.70;99.90
12911;DHT22;6523;49.758;6.120;2023-05-16T10:29:08;15.40;99.90
12911;DHT22;6523;49.758;6.120;2023-05-16T10:31:34;15.80;99.90
12911;DHT22;6523;49.758;6.120;2023-05-16T10:34:00;15.70;99.90
12911;DHT22;6523;49.758;6.120;2023-05-16T10:36:26;15.90;99.90
12911;DHT22;6523;49.758;6.120;2023-05-16T10:38:52;16.10;99.90
12911;DHT22;6523;49.758;6.120;2023-05-16T10:41:18;17.20;99.90
12911;DHT22;6523;49.758;6.120;2023-05-16T10:43:56;17.40;99.90
12911;DHT22;6523;49.758;6.120;2023-05-16T10:46:22;17.40;99.90
12911;DHT22;6523;49.758;6.120;2023-05-16T10:48:48;17.30;99.90
12911;DHT22;6523;49.758;6.120;2023-05-16T10:51:32;17.50;99.90
12911;DHT22;6523;49.758;6.120;2023-05-16T10:54:10;17.50;99.90
12911;DHT22;6523;49.758;6.120;2023-05-16T10:56:37;16.20;99.90
12911;DHT22;6523;49.758;6.120;2023-05-16T10:59:03;15.40;99.90
12911;DHT22;6523;49.758;6.120;2023-05-16T11:01:34;15.90;99.90
12911;DHT22;6523;49.758;6.120;2023-05-16T11:04:00;16.90;99.90
12911;DHT22;6523;49.758;6.120;2023-05-16T11:06:34;17.20;99.90
12911;DHT22;6523;49.758;6.120;2023-05-16T11:11:45;16.80;99.90
12911;DHT22;6523;49.758;6.120;2023-05-16T11:14:37;16.30;99.90
12911;DHT22;6523;49.758;6.120;2023-05-16T11:17:12;16.70;99.90
12911;DHT22;6523;49.758;6.120;2023-05-16T11:19:40;15.00;97.90
12911;DHT22;6523;49.758;6.120;2023-05-16T11:27:23;16.00;99.90
12911;DHT22;6523;49.758;6.120;2023-05-16T11:29:50;15.70;98.00
12911;DHT22;6523;49.758;6.120;2023-05-16T11:32:18;15.80;94.50
12911;DHT22;6523;49.758;6.120;2023-05-16T11:34:46;15.30;94.00
12911;DHT22;6523;49.758;6.120;2023-05-16T11:37:12;14.70;96.00
12911;DHT22;6523;49.758;6.120;2023-05-16T11:39:39;15.10;99.90
12911;DHT22;6523;49.758;6.120;2023-05-16T11:42:05;16.40;99.90
12911;DHT22;6523;49.758;6.120;2023-05-16T11:44:30;16.70;97.00
12911;DHT22;6523;49.758;6.120;2023-05-16T11:46:56;16.40;98.00
12911;DHT22;6523;49.758;6.120;2023-05-16T11:49:22;16.00;96.00
12911;DHT22;6523;49.758;6.120;2023-05-16T11:51:47;16.20;99.90
12911;DHT22;6523;49.758;6.120;2023-05-16T11:54:14;15.90;94.60
12911;DHT22;6523;49.758;6.120;2023-05-16T11:56:40;15.50;90.30
12911;DHT22;6523;49.758;6.120;2023-05-16T11:59:07;14.30;70.20
12911;DHT22;6523;49.758;6.120;2023-05-16T12:01:36;14.20;87.00
12911;DHT22;6523;49.758;6.120;2023-05-16T12:04:13;15.40;97.40
12911;DHT22;6523;49.758;6.120;2023-05-16T12:06:39;17.40;99.20
12911;DHT22;6523;49.758;6.120;2023-05-16T12:09:11;18.20;98.50
12911;DHT22;6523;49.758;6.120;2023-05-16T12:11:38;18.00;76.00
12911;DHT22;6523;49.758;6.120;2023-05-16T12:14:05;16.20;60.00
12911;DHT22;6523;49.758;6.120;2023-05-16T12:16:31;15.90;80.40
12911;DHT22;6523;49.758;6.120;2023-05-16T12:18:58;15.50;83.40
12911;DHT22;6523;49.758;6.120;2023-05-16T12:21:24;15.20;79.90
12911;DHT22;6523;49.758;6.120;2023-05-16T12:23:54;15.10;85.40
12911;DHT22;6523;49.758;6.120;2023-05-16T12:26:31;15.30;89.00
12911;DHT22;6523;49.758;6.120;2023-05-16T12:29:01;15.10;93.40
12911;DHT22;6523;49.758;6.120;2023-05-16T12:31:30;15.00;83.30
12911;DHT22;6523;49.758;6.120;2023-05-16T12:33:56;14.80;88.00
12911;DHT22;6523;49.758;6.120;2023-05-16T12:36:24;14.80;83.50
12911;DHT22;6523;49.758;6.120;2023-05-16T12:38:51;15.20;90.50
12911;DHT22;6523;49.758;6.120;2023-05-16T12:41:21;14.90;83.10
12911;DHT22;6523;49.758;6.120;2023-05-16T12:43:48;15.20;80.80
12911;DHT22;6523;49.758;6.120;2023-05-16T12:46:13;17.00;88.00
12911;DHT22;6523;49.758;6.120;2023-05-16T12:48:40;16.60;70.70
12911;DHT22;6523;49.758;6.120;2023-05-16T12:51:14;16.00;58.80
12911;DHT22;6523;49.758;6.120;2023-05-16T12:56:07;15.70;80.70
12911;DHT22;6523;49.758;6.120;2023-05-16T12:58:33;15.30;74.60
12911;DHT22;6523;49.758;6.120;2023-05-16T13:00:58;14.90;78.20
12911;DHT22;6523;49.758;6.120;2023-05-16T13:03:24;15.10;83.60
12911;DHT22;6523;49.758;6.120;2023-05-16T13:05:50;15.10;76.40
12911;DHT22;6523;49.758;6.120;2023-05-16T13:08:15;15.40;81.10
12911;DHT22;6523;49.758;6.120;2023-05-16T13:10:41;15.00;77.90
12911;DHT22;6523;49.758;6.120;2023-05-16T13:13:06;15.10;86.60
12911;DHT22;6523;49.758;6.120;2023-05-16T13:15:32;14.60;80.60
12911;DHT22;6523;49.758;6.120;2023-05-16T13:17:57;14.10;76.90
12911;DHT22;6523;49.758;6.120;2023-05-16T13:20:23;13.80;81.30
12911;DHT22;6523;49.758;6.120;2023-05-16T13:22:48;13.90;86.10
12911;DHT22;6523;49.758;6.120;2023-05-16T13:25:14;16.10;87.50
12911;DHT22;6523;49.758;6.120;2023-05-16T13:27:40;16.90;66.40
12911;DHT22;6523;49.758;6.120;2023-05-16T13:30:06;16.70;73.80
12911;DHT22;6523;49.758;6.120;2023-05-16T13:32:32;16.10;66.60
12911;DHT22;6523;49.758;6.120;2023-05-16T13:34:58;15.60;71.60
12911;DHT22;6523;49.758;6.120;2023-05-16T13:37:23;15.00;62.50
12911;DHT22;6523;49.758;6.120;2023-05-16T13:39:49;15.20;70.40
12911;DHT22;6523;49.758;6.120;2023-05-16T13:42:15;15.50;62.60
12911;DHT22;6523;49.758;6.120;2023-05-16T13:44:40;15.70;60.60
12911;DHT22;6523;49.758;6.120;2023-05-16T13:47:07;15.60;54.50
12911;DHT22;6523;49.758;6.120;2023-05-16T13:49:33;15.20;47.10
12911;DHT22;6523;49.758;6.120;2023-05-16T13:51:58;14.60;61.30
12911;DHT22;6523;49.758;6.120;2023-05-16T13:54:25;14.30;71.10
12911;DHT22;6523;49.758;6.120;2023-05-16T13:56:51;14.20;68.50
12911;DHT22;6523;49.758;6.120;2023-05-16T13:59:17;14.70;82.70
12911;DHT22;6523;49.758;6.120;2023-05-16T14:01:42;15.80;59.50
12911;DHT22;6523;49.758;6.120;2023-05-16T14:04:08;16.20;68.60
12911;DHT22;6523;49.758;6.120;2023-05-16T14:06:33;15.60;68.80
12911;DHT22;6523;49.758;6.120;2023-05-16T14:08:59;16.20;52.40
12911;DHT22;6523;49.758;6.120;2023-05-16T14:11:25;15.40;41.40
12911;DHT22;6523;49.758;6.120;2023-05-16T14:13:53;15.40;50.20
12911;DHT22;6523;49.758;6.120;2023-05-16T14:16:19;16.80;51.40
12911;DHT22;6523;49.758;6.120;2023-05-16T14:18:45;16.60;41.40
12911;DHT22;6523;49.758;6.120;2023-05-16T14:21:11;15.80;43.00
12911;DHT22;6523;49.758;6.120;2023-05-16T14:23:37;16.00;42.20
12911;DHT22;6523;49.758;6.120;2023-05-16T14:26:02;15.60;51.90
12911;DHT22;6523;49.758;6.120;2023-05-16T14:28:28;15.70;49.30
12911;DHT22;6523;49.758;6.120;2023-05-16T14:30:55;17.50;57.20
12911;DHT22;6523;49.758;6.120;2023-05-16T14:33:20;16.90;28.20
12911;DHT22;6523;49.758;6.120;2023-05-16T14:35:46;15.90;41.40
12911;DHT22;6523;49.758;6.120;2023-05-16T14:38:14;15.70;42.30
12911;DHT22;6523;49.758;6.120;2023-05-16T14:40:40;15.30;54.40
12911;DHT22;6523;49.758;6.120;2023-05-16T14:43:05;16.60;41.90
12911;DHT22;6523;49.758;6.120;2023-05-16T14:45:32;16.40;27.90
12911;DHT22;6523;49.758;6.120;2023-05-16T14:47:58;15.30;32.30
12911;DHT22;6523;49.758;6.120;2023-05-16T14:50:23;16.60;37.10
12911;DHT22;6523;49.758;6.120;2023-05-16T14:52:49;16.40;40.10
12911;DHT22;6523;49.758;6.120;2023-05-16T14:55:15;17.30;35.90
12911;DHT22;6523;49.758;6.120;2023-05-16T14:57:40;18.10;29.60
12911;DHT22;6523;49.758;6.120;2023-05-16T15:00:06;17.00;21.50
12911;DHT22;6523;49.758;6.120;2023-05-16T15:02:32;17.20;26.10
12911;DHT22;6523;49.758;6.120;2023-05-16T15:04:58;17.50;26.60
12911;DHT22;6523;49.758;6.120;2023-05-16T15:07:24;17.50;24.00
12911;DHT22;6523;49.758;6.120;2023-05-16T15:09:49;16.70;28.90
12911;DHT22;6523;49.758;6.120;2023-05-16T15:12:15;17.30;29.40
12911;DHT22;6523;49.758;6.120;2023-05-16T15:14:41;17.90;28.80
12911;DHT22;6523;49.758;6.120;2023-05-16T15:17:06;17.40;22.50
12911;DHT22;6523;49.758;6.120;2023-05-16T15:19:32;18.20;32.70
12911;DHT22;6523;49.758;6.120;2023-05-16T15:21:57;17.10;27.60
12911;DHT22;6523;49.758;6.120;2023-05-16T15:24:24;17.60;25.70
12911;DHT22;6523;49.758;6.120;2023-05-16T15:26:49;18.50;42.00
12911;DHT22;6523;49.758;6.120;2023-05-16T15:29:16;17.60;24.60
12911;DHT22;6523;49.758;6.120;2023-05-16T15:31:41;17.30;24.60
12911;DHT22;6523;49.758;6.120;2023-05-16T15:34:07;18.20;28.00
12911;DHT22;6523;49.758;6.120;2023-05-16T15:36:33;17.10;18.70
12911;DHT22;6523;49.758;6.120;2023-05-16T15:38:59;17.30;27.30
12911;DHT22;6523;49.758;6.120;2023-05-16T15:41:25;16.30;26.80
12911;DHT22;6523;49.758;6.120;2023-05-16T15:43:51;15.30;35.40
12911;DHT22;6523;49.758;6.120;2023-05-16T15:46:16;14.90;43.00
12911;DHT22;6523;49.758;6.120;2023-05-16T15:48:42;14.80;46.70
12911;DHT22;6523;49.758;6.120;2023-05-16T15:51:10;14.50;49.60
12911;DHT22;6523;49.758;6.120;2023-05-16T15:53:36;14.60;60.10
12911;DHT22;6523;49.758;6.120;2023-05-16T15:56:02;14.60;59.20
12911;DHT22;6523;49.758;6.120;2023-05-16T15:58:27;14.60;64.30
12911;DHT22;6523;49.758;6.120;2023-05-16T16:00:53;15.60;55.30
12911;DHT22;6523;49.758;6.120;2023-05-16T16:03:20;15.30;52.30
12911;DHT22;6523;49.758;6.120;2023-05-16T16:05:46;15.00;54.80
12911;DHT22;6523;49.758;6.120;2023-05-16T16:08:13;15.10;61.20
12911;DHT22;6523;49.758;6.120;2023-05-16T16:10:38;14.50;47.90